Terminal Aerodrome Forecast
Issued by NWS Sterling, VA

Current Version | Previous Version | Graphics & Text | Print | Product List | Glossary On
Versions: 1 2 3 4 5 6 7 8 9 10 11 12 13 14 15 16 17 18 19 20 21 22 23 24
000
FTUS41 KLWX 020500
TAFDCA
TAF
KDCA 020539Z 0206/0306 22006KT P6SM FEW100 BKN200
     FM021400 25005KT P6SM FEW060 SCT090
     FM021800 22009KT P6SM BKN050 BKN150
     FM022200 24009KT P6SM VCTS BKN050CB
     FM030200 26005KT P6SM SCT070 SCT120=

USA.gov is the U.S. government's official web portal to all federal, state and local government web resources and services.